Time;durP1;ratioP1;P1;durP2;ratioP2;P2;SDS_P1;SDS_P2;PMS_P1;PMS_P2;Temp;Humidity;BMP_temperature;BMP_pressure;BME280_temperature;BME280_humidity;BME280_pressure;Samples;Min_cycle;Max_cycle;Signal;HPM_P1;HPM_P2
2022/01/18 00:00:14;;;;;;;55.85;15.57;;;;;;;3.97;100.00;103763.25;5025949;28;20076;-60
2022/01/18 00:02:39;;;;;;;40.90;14.02;;;;;;;4.03;100.00;103759.19;5027062;28;20034;-60
2022/01/18 00:05:06;;;;;;;45.20;13.98;;;;;;;4.09;100.00;103759.59;5026324;28;20099;-60
2022/01/18 00:07:32;;;;;;;44.03;13.07;;;;;;;4.14;100.00;103761.97;5026047;28;20049;-60
2022/01/18 00:09:57;;;;;;;52.05;14.18;;;;;;;4.21;100.00;103759.63;5027385;28;20057;-60
2022/01/18 00:12:54;;;;;;;53.72;15.80;;;;;;;4.23;100.00;103765.84;5026605;28;20026;-60
2022/01/18 00:18:04;;;;;;;37.90;13.38;;;;;;;4.27;100.00;103770.06;5026925;28;20657;-60
2022/01/18 00:23:26;;;;;;;41.10;14.32;;;;;;;4.33;100.00;103766.88;5024081;28;20041;-60
2022/01/18 00:25:55;;;;;;;47.08;13.75;;;;;;;4.30;100.00;103770.69;5026050;28;20756;-60
2022/01/18 00:28:23;;;;;;;36.33;13.07;;;;;;;4.29;100.00;103766.22;5026408;28;20354;-60
2022/01/18 00:33:25;;;;;;;38.40;13.32;;;;;;;4.34;100.00;103764.03;5026825;28;20057;-60
2022/01/18 00:35:59;;;;;;;42.30;13.20;;;;;;;4.36;100.00;103772.09;5025278;28;21024;-60
2022/01/18 00:38:31;;;;;;;42.22;12.88;;;;;;;4.39;100.00;103782.72;5026082;28;20040;-60
2022/01/18 00:40:57;;;;;;;44.25;14.10;;;;;;;4.42;100.00;103788.81;5025783;28;20424;-60
2022/01/18 00:43:23;;;;;;;47.45;14.13;;;;;;;4.46;100.00;103786.72;5025485;28;20458;-60
2022/01/18 00:45:48;;;;;;;47.05;13.90;;;;;;;4.51;100.00;103794.50;5025689;28;20039;-60
2022/01/18 00:48:14;;;;;;;44.38;14.32;;;;;;;4.52;100.00;103791.69;5020360;28;20029;-59
2022/01/18 00:50:39;;;;;;;41.63;12.98;;;;;;;4.51;100.00;103795.41;5025176;28;20108;-60
2022/01/18 00:53:10;;;;;;;45.65;12.63;;;;;;;4.51;100.00;103798.13;5025395;28;20399;-60
2022/01/18 00:55:47;;;;;;;45.17;13.35;;;;;;;4.54;100.00;103802.44;5026013;28;20161;-60
2022/01/18 00:58:12;;;;;;;35.03;13.60;;;;;;;4.55;100.00;103798.72;5024945;28;20419;-60
2022/01/18 01:00:37;;;;;;;49.53;14.38;;;;;;;4.57;100.00;103805.81;5025603;28;20052;-60
2022/01/18 01:03:03;;;;;;;48.53;13.85;;;;;;;4.59;100.00;103811.97;5025047;28;20053;-60
2022/01/18 01:05:28;;;;;;;49.15;15.10;;;;;;;4.60;100.00;103805.56;5023560;28;20500;-59
2022/01/18 01:07:53;;;;;;;50.75;15.50;;;;;;;4.64;100.00;103803.47;5025683;28;20049;-60
2022/01/18 01:10:19;;;;;;;49.83;15.35;;;;;;;4.64;100.00;103807.06;5024519;28;20013;-60
2022/01/18 01:12:44;;;;;;;55.72;15.05;;;;;;;4.65;100.00;103805.19;5024461;28;20037;-60
2022/01/18 01:15:13;;;;;;;45.80;14.25;;;;;;;4.68;100.00;103794.94;5024807;28;20029;-60
2022/01/18 01:17:55;;;;;;;48.33;14.27;;;;;;;4.71;100.00;103782.06;5025453;28;20109;-60
2022/01/18 01:34:32;;;;;;;44.40;13.80;;;;;;;4.77;100.00;103776.16;5025139;28;20075;-60
2022/01/18 01:42:16;;;;;;;52.67;16.58;;;;;;;4.78;100.00;103775.19;5023969;28;20048;-60
2022/01/18 01:44:47;;;;;;;49.25;15.13;;;;;;;4.78;100.00;103777.91;5024875;28;20049;-60
2022/01/18 01:47:18;;;;;;;48.28;16.48;;;;;;;4.78;100.00;103783.34;5024155;28;20029;-60
2022/01/18 01:49:44;;;;;;;41.40;15.85;;;;;;;4.79;100.00;103777.75;5024029;28;20017;-60
2022/01/18 01:52:11;;;;;;;44.85;16.73;;;;;;;4.79;100.00;103775.03;5024687;28;20043;-60
2022/01/18 01:54:38;;;;;;;46.33;16.27;;;;;;;4.80;100.00;103779.50;5024395;28;20029;-60
2022/01/18 01:57:05;;;;;;;54.53;15.97;;;;;;;4.82;100.00;103782.13;5023909;28;20017;-61
2022/01/18 01:59:30;;;;;;;54.53;16.17;;;;;;;4.83;100.00;103782.00;5025521;28;20040;-60
2022/01/18 02:01:56;;;;;;;51.10;16.67;;;;;;;4.85;100.00;103780.00;5023192;28;20045;-60
2022/01/18 02:04:21;;;;;;;51.10;17.45;;;;;;;4.85;100.00;103780.00;5023768;28;20041;-60
2022/01/18 02:06:47;;;;;;;55.17;17.10;;;;;;;4.87;100.00;103785.34;5024565;28;20468;-60
2022/01/18 02:09:12;;;;;;;51.40;16.92;;;;;;;4.86;100.00;103781.72;5023350;28;20029;-60
2022/01/18 02:11:38;;;;;;;47.45;15.90;;;;;;;4.87;100.00;103793.50;5022924;28;20082;-60
2022/01/18 02:14:05;;;;;;;51.42;16.98;;;;;;;4.88;100.00;103793.38;5024084;28;20503;-61
2022/01/18 02:22:04;;;;;;;44.75;17.65;;;;;;;4.89;100.00;103791.53;5023987;28;20068;-61
2022/01/18 02:24:30;;;;;;;55.70;18.00;;;;;;;4.84;100.00;103791.88;5024534;28;20057;-60
2022/01/18 02:26:55;;;;;;;50.30;17.98;;;;;;;4.84;100.00;103791.03;5024375;28;20457;-60
2022/01/18 02:29:21;;;;;;;48.20;18.70;;;;;;;4.85;100.00;103793.63;5023325;28;20029;-60
2022/01/18 02:31:47;;;;;;;55.38;18.67;;;;;;;4.81;100.00;103780.34;5024078;28;20037;-59
2022/01/18 02:34:19;;;;;;;52.83;17.65;;;;;;;4.82;100.00;103790.28;5023358;28;20017;-60
2022/01/18 02:36:45;;;;;;;52.50;18.15;;;;;;;4.81;100.00;103783.94;5023600;28;20356;-60
2022/01/18 02:39:12;;;;;;;51.33;18.83;;;;;;;4.80;100.00;103784.94;5023965;28;20176;-60
2022/01/18 02:41:37;;;;;;;48.45;18.08;;;;;;;4.78;100.00;103780.63;5023723;28;20144;-60
2022/01/18 02:44:11;;;;;;;49.72;18.73;;;;;;;4.77;100.00;103782.47;5023335;28;20112;-61
2022/01/18 02:46:38;;;;;;;47.63;17.92;;;;;;;4.77;100.00;103776.16;5024496;28;20038;-60
2022/01/18 02:49:05;;;;;;;50.40;19.08;;;;;;;4.77;100.00;103768.88;5022834;28;20048;-61
2022/01/18 02:51:30;;;;;;;56.70;20.80;;;;;;;4.77;100.00;103770.72;5023819;28;20021;-60
2022/01/18 02:54:02;;;;;;;50.67;19.75;;;;;;;4.77;100.00;103770.72;5023651;28;20439;-60
2022/01/18 02:56:34;;;;;;;58.78;21.80;;;;;;;4.76;100.00;103777.13;5023698;28;20025;-60
2022/01/18 03:04:18;;;;;;;67.90;21.67;;;;;;;4.76;100.00;103775.28;5022823;28;20126;-60
2022/01/18 03:06:44;;;;;;;53.30;21.20;;;;;;;4.77;100.00;103778.88;5024186;28;20480;-60
2022/01/18 03:09:10;;;;;;;56.17;20.67;;;;;;;4.77;100.00;103782.47;5023347;28;20026;-60
2022/01/18 03:11:35;;;;;;;52.50;21.38;;;;;;;4.75;100.00;103781.72;5022857;28;20065;-60
2022/01/18 03:14:01;;;;;;;60.58;21.17;;;;;;;4.77;100.00;103784.34;5023910;28;20528;-60
2022/01/18 03:16:26;;;;;;;50.67;20.50;;;;;;;4.76;100.00;103780.72;5023925;28;20041;-60
2022/01/18 03:18:51;;;;;;;49.47;21.15;;;;;;;4.78;100.00;103780.63;5022625;28;20462;-60
2022/01/18 03:21:17;;;;;;;56.80;21.33;;;;;;;4.77;100.00;103784.34;5023036;28;20022;-60
2022/01/18 03:23:42;;;;;;;58.97;20.38;;;;;;;4.77;100.00;103784.34;5024159;28;20392;-60
2022/01/18 03:26:15;;;;;;;50.78;21.63;;;;;;;4.77;100.00;103787.06;5022682;28;20467;-60
2022/01/18 03:28:40;;;;;;;62.03;22.10;;;;;;;4.78;100.00;103784.19;5023831;28;20116;-60
2022/01/18 03:31:06;;;;;;;59.28;20.45;;;;;;;4.78;100.00;103786.06;5023105;28;20109;-61
2022/01/18 03:33:31;;;;;;;60.28;22.83;;;;;;;4.78;100.00;103795.09;5023036;28;20053;-60
2022/01/18 03:35:57;;;;;;;55.92;21.05;;;;;;;4.78;100.00;103794.22;5028087;28;20030;-60
2022/01/18 03:38:29;;;;;;;57.85;22.15;;;;;;;4.78;100.00;103792.38;5027326;28;20033;-60
2022/01/18 03:41:00;;;;;;;54.75;21.35;;;;;;;4.76;100.00;103791.59;5026657;28;20064;-60
2022/01/18 03:43:26;;;;;;;53.65;20.90;;;;;;;4.78;100.00;103794.22;5026052;28;20533;-60
2022/01/18 03:45:54;;;;;;;55.42;21.52;;;;;;;4.77;100.00;103787.06;5025932;28;20140;-60
2022/01/18 03:48:29;;;;;;;59.20;21.67;;;;;;;4.76;100.00;103790.75;5025876;28;20020;-60
2022/01/18 03:50:57;;;;;;;49.35;20.15;;;;;;;4.76;100.00;103794.31;5027447;28;20037;-60
2022/01/18 03:53:23;;;;;;;57.58;21.48;;;;;;;4.77;100.00;103796.09;5026946;28;20029;-59
2022/01/18 03:55:49;;;;;;;58.08;22.00;;;;;;;4.76;100.00;103794.31;5026718;28;20044;-60
2022/01/18 03:58:14;;;;;;;51.83;21.52;;;;;;;4.76;100.00;103797.06;5026739;28;20030;-60
2022/01/18 04:00:40;;;;;;;53.17;21.20;;;;;;;4.78;100.00;103795.09;5027345;28;20091;-60
2022/01/18 04:03:05;;;;;;;51.28;22.60;;;;;;;4.78;100.00;103805.13;5026908;28;20049;-61
2022/01/18 04:05:31;;;;;;;48.58;20.63;;;;;;;4.76;100.00;103801.63;5026446;28;20123;-60
2022/01/18 04:07:56;;;;;;;53.80;21.48;;;;;;;4.75;100.00;103813.50;5027338;28;20031;-60
2022/01/18 04:10:21;;;;;;;56.90;22.17;;;;;;;4.74;100.00;103809.06;5026450;28;20480;-60
2022/01/18 04:12:47;;;;;;;52.22;22.33;;;;;;;4.73;100.00;103810.94;5026952;28;20025;-59
2022/01/18 04:15:13;;;;;;;43.75;20.88;;;;;;;4.72;100.00;103811.91;5026782;28;20484;-60
2022/01/18 04:28:31;;;;;;;43.75;21.13;;;;;;;4.67;100.00;103815.00;5026527;28;20045;-60
2022/01/18 04:30:57;;;;;;;41.25;19.10;;;;;;;4.65;100.00;103808.78;5026819;28;20033;-60
2022/01/18 04:33:22;;;;;;;48.75;21.25;;;;;;;4.64;100.00;103815.22;5025331;28;20099;-59
2022/01/18 04:35:47;;;;;;;54.30;21.08;;;;;;;4.64;100.00;103817.94;5026423;28;20113;-60
2022/01/18 04:38:13;;;;;;;46.17;20.60;;;;;;;4.63;100.00;103826.25;5026209;28;20029;-59
2022/01/18 04:40:42;;;;;;;44.28;21.33;;;;;;;4.62;100.00;103825.38;5026083;28;20476;-59
2022/01/18 04:48:37;;;;;;;50.47;19.90;;;;;;;4.61;100.00;103820.03;5025591;28;20036;-60
2022/01/18 04:51:11;;;;;;;45.70;20.77;;;;;;;4.58;100.00;103823.88;5020967;28;20022;-61
2022/01/18 04:53:43;;;;;;;47.30;21.08;;;;;;;4.58;100.00;103825.72;5026020;28;20111;-60
2022/01/18 04:56:15;;;;;;;52.83;21.95;;;;;;;4.57;100.00;103821.28;5024829;28;20365;-60
2022/01/18 04:58:40;;;;;;;56.00;21.45;;;;;;;4.55;100.00;103826.81;5025383;28;20029;-60
2022/01/18 05:01:07;;;;;;;56.13;21.55;;;;;;;4.55;100.00;103825.94;5025345;28;20056;-60
2022/01/18 05:03:33;;;;;;;51.22;20.85;;;;;;;4.53;100.00;103826.06;5024702;28;20067;-60
2022/01/18 05:06:06;;;;;;;48.67;20.63;;;;;;;4.51;100.00;103836.22;5026003;28;20030;-60
2022/01/18 05:08:31;;;;;;;56.78;21.05;;;;;;;4.49;100.00;103832.72;5026195;28;20412;-60
2022/01/18 05:10:58;;;;;;;54.10;21.00;;;;;;;4.50;100.00;103837.19;5025531;28;20045;-60
2022/01/18 05:13:50;;;;;;;62.75;21.27;;;;;;;4.48;100.00;103841.88;5007778;28;20033;-60
2022/01/18 05:19:01;;;;;;;67.47;22.23;;;;;;;4.44;100.00;103845.81;5024681;28;20484;-60
2022/01/18 05:24:11;;;;;;;55.90;20.92;;;;;;;4.41;100.00;103835.19;5025030;28;20053;-60
2022/01/18 05:26:37;;;;;;;51.28;21.35;;;;;;;4.41;100.00;103838.78;5025321;28;20029;-60
2022/01/18 05:29:02;;;;;;;54.35;21.08;;;;;;;4.40;100.00;103838.88;5025310;28;20090;-61
2022/01/18 05:31:27;;;;;;;47.75;19.65;;;;;;;4.38;100.00;103841.72;5024495;28;20026;-60
2022/01/18 05:33:53;;;;;;;49.10;20.20;;;;;;;4.39;100.00;103846.16;5024786;28;20029;-60
2022/01/18 05:36:18;;;;;;;53.58;20.65;;;;;;;4.38;100.00;103835.41;5025262;28;20029;-60
2022/01/18 05:38:44;;;;;;;53.20;21.35;;;;;;;4.39;100.00;103834.41;5024619;28;20563;-60
2022/01/18 05:41:10;;;;;;;56.10;22.17;;;;;;;4.39;100.00;103831.69;5024208;28;20465;-60
2022/01/18 05:43:35;;;;;;;63.10;25.83;;;;;;;4.39;100.00;103828.97;5025167;28;20091;-61
2022/01/18 05:46:02;;;;;;;68.38;28.90;;;;;;;4.39;100.00;103826.25;5025022;28;20104;-60
2022/01/18 05:48:27;;;;;;;59.08;23.13;;;;;;;4.40;100.00;103822.53;5024291;28;20021;-60
2022/01/18 05:50:59;;;;;;;55.22;22.27;;;;;;;4.39;100.00;103827.13;5024372;28;20031;-60
2022/01/18 05:53:25;;;;;;;57.88;21.98;;;;;;;4.38;100.00;103830.84;5024644;28;20033;-60
2022/01/18 05:55:50;;;;;;;66.20;21.40;;;;;;;4.37;100.00;103826.38;5024261;28;20034;-60
2022/01/18 05:58:15;;;;;;;67.38;22.25;;;;;;;4.36;100.00;103831.94;5024416;28;20030;-60
2022/01/18 06:00:41;;;;;;;59.88;20.77;;;;;;;4.38;100.00;103822.66;5023980;28;20037;-63
2022/01/18 06:03:15;;;;;;;57.95;20.08;;;;;;;4.38;100.00;103824.53;5023385;28;20045;-60
2022/01/18 06:08:24;;;;;;;62.17;22.05;;;;;;;4.38;100.00;103824.53;5024698;28;20070;-59
2022/01/18 06:10:49;;;;;;;57.83;20.92;;;;;;;4.38;100.00;103824.53;5024014;28;20029;-59
2022/01/18 06:13:15;;;;;;;59.55;21.60;;;;;;;4.36;100.00;103826.50;5018793;28;20450;-59
2022/01/18 06:15:40;;;;;;;65.03;21.83;;;;;;;4.34;100.00;103834.75;5024680;28;20033;-60
2022/01/18 06:18:06;;;;;;;73.68;20.30;;;;;;;4.34;100.00;103839.34;5023036;28;20029;-60
2022/01/18 06:20:32;;;;;;;60.25;19.67;;;;;;;4.34;100.00;103842.94;5023916;28;20037;-60
2022/01/18 06:22:58;;;;;;;55.80;19.38;;;;;;;4.33;100.00;103837.63;5024695;28;20026;-60
2022/01/18 06:25:23;;;;;;;56.85;18.50;;;;;;;4.32;100.00;103838.59;5023957;28;20033;-60
2022/01/18 06:27:50;;;;;;;54.05;18.73;;;;;;;4.32;100.00;103835.88;5023824;28;20032;-59
2022/01/18 06:30:16;;;;;;;53.55;19.05;;;;;;;4.32;100.00;103836.75;5023793;28;20061;-59
2022/01/18 06:32:45;;;;;;;54.85;18.35;;;;;;;4.32;100.00;103833.16;5024177;28;20468;-60
2022/01/18 06:35:11;;;;;;;52.05;19.33;;;;;;;4.32;100.00;103830.44;5023900;28;20036;-60
2022/01/18 06:37:37;;;;;;;53.50;19.08;;;;;;;4.32;100.00;103820.44;5024135;28;20034;-60
2022/01/18 06:40:04;;;;;;;54.85;19.60;;;;;;;4.31;100.00;103826.84;5023916;28;20017;-60
2022/01/18 06:42:29;;;;;;;57.00;18.55;;;;;;;4.30;100.00;103826.94;5023789;28;20029;-59
2022/01/18 06:44:54;;;;;;;56.97;18.20;;;;;;;4.29;100.00;103828.81;5023299;28;20083;-60
2022/01/18 06:47:20;;;;;;;52.78;17.38;;;;;;;4.30;100.00;103827.81;5023580;28;20029;-60
2022/01/18 06:49:45;;;;;;;49.55;16.73;;;;;;;4.30;100.00;103833.25;5022913;28;20013;-59
2022/01/18 06:52:10;;;;;;;51.65;17.30;;;;;;;4.30;100.00;103825.09;5023178;28;20377;-59
2022/01/18 06:54:36;;;;;;;52.83;16.15;;;;;;;4.33;100.00;103826.72;5024485;28;20388;-60
2022/01/18 06:57:02;;;;;;;56.40;18.35;;;;;;;4.32;100.00;103827.72;5022678;28;20045;-60
2022/01/18 06:59:27;;;;;;;61.05;17.83;;;;;;;4.33;100.00;103827.59;5023790;28;20076;-60
2022/01/18 07:01:52;;;;;;;60.95;18.88;;;;;;;4.32;100.00;103833.16;5023169;28;20018;-59
2022/01/18 07:04:18;;;;;;;61.55;18.98;;;;;;;4.33;100.00;103838.47;5022656;28;20025;-60
2022/01/18 07:06:45;;;;;;;64.43;18.33;;;;;;;4.33;100.00;103848.50;5016814;28;20338;-59
2022/01/18 07:09:12;;;;;;;74.60;19.50;;;;;;;4.31;100.00;103845.00;5007283;28;20034;-59
2022/01/18 07:11:37;;;;;;;61.90;18.80;;;;;;;4.29;100.00;103846.97;5022342;28;20041;-59
2022/01/18 07:14:02;;;;;;;70.28;17.77;;;;;;;4.28;100.00;103845.25;5019634;28;20032;-60
2022/01/18 07:16:28;;;;;;;69.45;18.77;;;;;;;4.27;100.00;103852.56;5023252;28;20040;-60
2022/01/18 07:18:53;;;;;;;72.93;18.77;;;;;;;4.29;100.00;103857.88;5023214;28;20103;-60
2022/01/18 07:21:18;;;;;;;66.38;19.73;;;;;;;4.28;100.00;103854.28;5023788;28;20048;-60
2022/01/18 07:23:43;;;;;;;60.50;19.20;;;;;;;4.29;100.00;103857.88;5021413;28;20041;-60
2022/01/18 07:26:09;;;;;;;65.40;18.10;;;;;;;4.27;100.00;103865.28;5022026;28;20037;-60
2022/01/18 07:28:34;;;;;;;59.05;19.40;;;;;;;4.26;100.00;103869.88;5023479;28;20033;-60
2022/01/18 07:31:00;;;;;;;62.15;19.02;;;;;;;4.26;100.00;103867.16;5023460;28;20057;-60
2022/01/18 07:33:25;;;;;;;67.22;19.88;;;;;;;4.27;100.00;103870.72;5022861;28;20037;-60
2022/01/18 07:35:51;;;;;;;67.35;18.98;;;;;;;4.25;100.00;103867.25;5023756;28;20451;-60
2022/01/18 07:38:18;;;;;;;69.47;19.38;;;;;;;4.25;100.00;103867.25;5005301;28;20026;-60
2022/01/18 07:40:49;;;;;;;65.03;19.23;;;;;;;4.24;100.00;103869.09;5015980;28;20088;-60
2022/01/18 07:43:17;;;;;;;77.55;20.77;;;;;;;4.23;100.00;103869.22;5021564;28;20036;-60
2022/01/18 07:45:47;;;;;;;67.47;20.30;;;;;;;4.26;100.00;103869.88;5005902;28;20029;-60
2022/01/18 07:48:13;;;;;;;63.42;20.10;;;;;;;4.26;100.00;103868.97;5022415;28;20483;-60
2022/01/18 07:50:40;;;;;;;74.57;20.40;;;;;;;4.27;100.00;103873.44;5021474;28;20029;-60
2022/01/18 07:53:06;;;;;;;70.70;19.63;;;;;;;4.29;100.00;103869.63;5023103;28;20022;-60
2022/01/18 07:55:31;;;;;;;72.70;20.60;;;;;;;4.29;100.00;103875.06;5022787;28;20030;-60
2022/01/18 07:57:59;;;;;;;72.60;18.77;;;;;;;4.31;100.00;103869.50;5022407;28;20021;-60
2022/01/18 08:00:24;;;;;;;59.67;17.23;;;;;;;4.31;100.00;103872.22;5023328;28;20041;-60
2022/01/18 08:02:50;;;;;;;57.22;17.38;;;;;;;4.31;100.00;103877.66;5022233;28;20041;-60
2022/01/18 08:05:15;;;;;;;64.63;17.88;;;;;;;4.34;100.00;103877.44;5019676;28;20033;-60
2022/01/18 08:07:41;;;;;;;70.50;18.10;;;;;;;4.35;100.00;103879.16;5007526;28;20036;-61
2022/01/18 08:10:08;;;;;;;58.92;17.98;;;;;;;4.36;100.00;103879.06;5013431;28;20021;-61
2022/01/18 08:12:33;;;;;;;58.22;18.10;;;;;;;4.37;100.00;103875.38;5022684;28;20548;-60
2022/01/18 08:15:12;;;;;;;61.72;16.83;;;;;;;4.39;100.00;103875.25;5023975;28;20022;-61
2022/01/18 08:17:37;;;;;;;59.00;16.85;;;;;;;4.38;100.00;103874.38;5022513;28;20068;-61
2022/01/18 08:20:03;;;;;;;58.38;17.92;;;;;;;4.40;100.00;103876.97;5022039;28;20484;-61
2022/01/18 08:22:28;;;;;;;56.92;17.48;;;;;;;4.40;100.00;103874.25;5018627;28;20129;-61
2022/01/18 08:24:54;;;;;;;50.85;15.80;;;;;;;4.39;100.00;103873.38;5026599;28;20025;-61
2022/01/18 08:27:21;;;;;;;54.40;16.52;;;;;;;4.43;100.00;103872.19;5025520;28;20103;-61
2022/01/18 08:29:46;;;;;;;54.58;16.00;;;;;;;4.41;100.00;103879.59;5026574;28;20021;-60
2022/01/18 08:32:11;;;;;;;55.13;16.60;;;;;;;4.43;100.00;103883.06;5026391;28;20028;-61
2022/01/18 08:34:37;;;;;;;51.65;15.30;;;;;;;4.45;100.00;103880.22;5026234;28;20037;-61
2022/01/18 08:37:02;;;;;;;47.05;13.77;;;;;;;4.49;100.00;103880.84;5026371;28;20025;-61
2022/01/18 08:39:28;;;;;;;42.65;14.18;;;;;;;4.51;100.00;103877.06;5026620;28;20421;-61
2022/01/18 08:41:54;;;;;;;42.40;14.00;;;;;;;4.52;100.00;103873.34;5025692;28;20059;-60
2022/01/18 08:44:19;;;;;;;42.88;14.13;;;;;;;4.54;100.00;103875.94;5026713;28;20037;-60
2022/01/18 08:46:45;;;;;;;41.42;13.63;;;;;;;4.56;100.00;103866.69;5026505;28;20026;-60
2022/01/18 08:49:10;;;;;;;44.05;13.45;;;;;;;4.60;100.00;103864.56;5025711;28;20025;-60
2022/01/18 08:51:35;;;;;;;38.33;14.43;;;;;;;4.62;100.00;103863.47;5026243;28;20028;-61
2022/01/18 08:54:03;;;;;;;45.65;14.85;;;;;;;4.62;100.00;103870.78;5026797;28;20668;-60
2022/01/18 08:56:29;;;;;;;43.58;14.23;;;;;;;4.65;100.00;103867.81;5024739;28;20024;-61
2022/01/18 08:58:55;;;;;;;43.35;14.68;;;;;;;4.69;100.00;103875.63;5026221;28;20064;-60
2022/01/18 09:01:20;;;;;;;39.17;14.60;;;;;;;4.69;100.00;103889.25;5025826;28;20110;-61
2022/01/18 09:03:46;;;;;;;42.25;14.75;;;;;;;4.76;100.00;103886.03;5024851;28;20713;-60
2022/01/18 09:06:13;;;;;;;43.58;15.32;;;;;;;4.77;100.00;103879.63;5025779;28;20021;-61
2022/01/18 09:08:40;;;;;;;36.92;13.77;;;;;;;4.81;100.00;103883.81;5025710;28;20025;-60
2022/01/18 09:11:06;;;;;;;43.08;15.38;;;;;;;4.84;100.00;103883.59;5024588;28;20036;-61
2022/01/18 09:13:34;;;;;;;45.67;16.48;;;;;;;4.90;100.00;103885.84;5022942;28;20641;-61
2022/01/18 09:15:59;;;;;;;44.73;15.97;;;;;;;4.97;100.00;103887.13;5025841;28;20013;-60
2022/01/18 09:18:27;;;;;;;38.03;15.85;;;;;;;5.02;100.00;103878.56;5025325;28;20029;-61
2022/01/18 09:20:53;;;;;;;41.22;15.30;;;;;;;5.07;100.00;103879.97;5027946;28;20042;-60
2022/01/18 09:23:18;;;;;;;37.08;15.07;;;;;;;5.11;100.00;103884.16;5023234;28;20413;-63
2022/01/18 09:25:44;;;;;;;38.25;15.45;;;;;;;5.18;100.00;103881.84;5024566;28;20033;-62
2022/01/18 09:28:09;;;;;;;36.97;14.75;;;;;;;5.21;100.00;103893.34;5024876;28;20029;-62
2022/01/18 09:30:36;;;;;;;42.88;15.13;;;;;;;5.30;100.00;103893.63;5024995;28;20104;-62
2022/01/18 09:33:05;;;;;;;37.63;15.82;;;;;;;5.33;100.00;103888.81;5024236;28;20030;-62
2022/01/18 09:35:31;;;;;;;43.17;16.33;;;;;;;5.36;100.00;103893.13;5025351;28;20036;-62
2022/01/18 09:37:57;;;;;;;43.67;16.08;;;;;;;5.37;100.00;103892.13;5023817;28;20033;-62
2022/01/18 09:40:23;;;;;;;45.05;17.25;;;;;;;5.44;100.00;103885.22;5024986;28;20562;-62
2022/01/18 09:42:53;;;;;;;46.38;18.13;;;;;;;5.46;100.00;103895.00;5024153;28;20033;-62
2022/01/18 09:45:19;;;;;;;46.03;16.77;;;;;;;5.54;100.00;103897.13;5018354;28;20121;-62
2022/01/18 09:47:48;;;;;;;42.63;16.55;;;;;;;5.57;100.00;103901.47;5022883;28;20052;-62
2022/01/18 09:50:21;;;;;;;51.63;18.58;;;;;;;5.59;100.00;103902.22;5024157;28;20072;-62
2022/01/18 09:52:51;;;;;;;47.33;16.85;;;;;;;5.60;100.00;103903.94;5023242;28;20484;-62
2022/01/18 09:55:17;;;;;;;42.05;17.85;;;;;;;5.68;100.00;103913.25;5012245;28;20030;-61
2022/01/18 09:57:42;;;;;;;48.13;19.02;;;;;;;5.79;100.00;103906.06;5006972;28;20022;-62
2022/01/18 10:00:08;;;;;;;48.78;22.80;;;;;;;5.85;100.00;103905.56;5024558;28;20044;-62
2022/01/18 10:02:33;;;;;;;50.08;20.20;;;;;;;5.87;100.00;103904.44;5022974;28;20046;-62
2022/01/18 10:05:00;;;;;;;47.05;19.48;;;;;;;5.98;100.00;103909.03;5014896;28;20065;-61
2022/01/18 10:07:36;;;;;;;42.58;17.80;;;;;;;6.01;100.00;103906.09;5006237;28;20392;-61
2022/01/18 10:10:05;;;;;;;46.42;20.25;;;;;;;6.02;100.00;103912.41;5023316;28;20056;-62
2022/01/18 10:12:30;;;;;;;46.70;19.92;;;;;;;6.07;100.00;103915.63;5018697;28;20022;-61
2022/01/18 10:14:59;;;;;;;47.35;19.00;;;;;;;6.16;100.00;103913.00;5004808;28;20026;-61
2022/01/18 10:17:30;;;;;;;43.28;18.88;;;;;;;6.44;100.00;103908.00;5020477;28;20033;-61
2022/01/18 10:20:03;;;;;;;43.47;18.58;;;;;;;6.71;99.13;103911.13;5024134;28;20436;-61
2022/01/18 10:22:39;;;;;;;48.67;18.10;;;;;;;6.96;98.26;103909.91;5024619;28;20050;-61
2022/01/18 10:25:15;;;;;;;47.10;19.05;;;;;;;7.25;97.12;103910.13;5024061;28;20072;-61
2022/01/18 10:27:40;;;;;;;39.67;18.90;;;;;;;7.36;95.82;103905.56;5023212;28;20033;-61
2022/01/18 10:30:09;;;;;;;40.78;20.10;;;;;;;7.49;95.33;103908.94;5019280;28;20025;-61
2022/01/18 10:32:40;;;;;;;40.90;16.50;;;;;;;7.58;93.29;103894.47;5011728;28;20418;-61
2022/01/18 10:35:08;;;;;;;34.85;17.63;;;;;;;7.61;93.12;103904.28;5011323;28;20537;-61
2022/01/18 10:37:35;;;;;;;34.17;16.50;;;;;;;7.67;92.96;103899.13;5024340;28;20475;-61
2022/01/18 10:40:03;;;;;;;42.72;17.77;;;;;;;7.90;93.12;103902.50;5024567;28;20018;-61
2022/01/18 10:42:38;;;;;;;35.85;17.25;;;;;;;8.04;92.69;103890.31;5023185;28;20033;-61
2022/01/18 10:45:19;;;;;;;36.53;15.70;;;;;;;8.04;91.64;103893.06;5021919;28;20487;-61
2022/01/18 10:47:57;;;;;;;36.47;15.00;;;;;;;8.22;90.99;103888.66;5008319;28;20057;-61
2022/01/18 10:50:22;;;;;;;35.33;14.25;;;;;;;8.45;90.12;103874.75;5018143;28;20483;-61
2022/01/18 10:52:49;;;;;;;38.38;15.27;;;;;;;8.67;88.75;103879.06;5019252;28;20041;-61
2022/01/18 10:55:21;;;;;;;37.55;15.23;;;;;;;8.82;87.24;103874.91;5023031;28;20033;-61
2022/01/18 10:57:47;;;;;;;40.20;17.15;;;;;;;9.02;87.00;103873.88;5025961;28;20029;-61
2022/01/18 11:00:21;;;;;;;36.53;15.07;;;;;;;9.23;85.41;103873.69;5021243;28;20037;-61
2022/01/18 11:02:51;;;;;;;30.75;13.27;;;;;;;9.69;84.58;103871.09;5018757;28;20041;-61
2022/01/18 11:05:28;;;;;;;26.98;12.20;;;;;;;10.72;80.39;103862.50;5023358;28;20108;-61
2022/01/18 11:07:57;;;;;;;32.60;13.43;;;;;;;11.12;77.04;103864.72;5021577;28;20141;-61
2022/01/18 11:10:30;;;;;;;30.58;12.00;;;;;;;12.26;73.80;103847.94;5021412;28;20032;-61
2022/01/18 11:13:06;;;;;;;28.20;11.00;;;;;;;13.75;70.24;103837.50;5014345;28;20037;-61
2022/01/18 11:15:36;;;;;;;28.40;12.27;;;;;;;15.21;63.05;103843.94;5010293;28;20017;-61
2022/01/18 11:18:07;;;;;;;29.17;11.32;;;;;;;16.22;59.58;103839.63;5012210;28;20844;-61
2022/01/18 11:20:35;;;;;;;27.10;10.27;;;;;;;16.80;54.70;103845.16;5015063;28;20048;-61
2022/01/18 11:23:03;;;;;;;25.55;10.30;;;;;;;16.60;55.68;103842.16;5011302;28;20412;-61
2022/01/18 11:25:29;;;;;;;;;;;;;;;16.58;67.28;103847.91;5017765;28;20043;-61
2022/01/18 11:27:56;;;;;;;26.92;9.77;;;;;;;16.25;56.59;103847.53;5017437;28;19921;-61
2022/01/18 11:30:26;;;;;;;26.00;9.82;;;;;;;16.34;54.01;103843.59;5022409;28;20559;-60
2022/01/18 11:32:54;;;;;;;28.48;10.65;;;;;;;15.75;56.04;103849.22;5003588;28;20117;-61
2022/01/18 11:35:29;;;;;;;27.42;10.38;;;;;;;16.50;55.47;103841.63;5003861;28;20026;-61
2022/01/18 11:38:10;;;;;;;30.95;12.93;;;;;;;17.08;57.21;103836.84;5006756;28;21114;-61
2022/01/18 11:40:45;;;;;;;23.73;11.82;;;;;;;17.07;53.63;103840.66;5018700;28;20049;-61
2022/01/18 11:43:11;;;;;;;25.92;9.48;;;;;;;16.85;51.31;103840.72;5023311;28;20077;-61
2022/01/18 11:45:39;;;;;;;25.27;11.30;;;;;;;17.19;50.91;103841.00;5022489;28;20045;-61
2022/01/18 11:48:07;;;;;;;;;;;;;;;18.24;58.24;103832.38;5019900;28;20038;-61
2022/01/18 11:50:42;;;;;;;22.17;9.25;;;;;;;18.56;48.46;103825.19;5023694;28;19913;-61
2022/01/18 11:53:28;;;;;;;23.80;11.07;;;;;;;18.65;50.79;103823.03;5020158;28;20034;-61
2022/01/18 11:55:59;;;;;;;27.30;10.05;;;;;;;18.00;49.58;103825.47;5010316;28;20033;-61
2022/01/18 11:58:28;;;;;;;26.02;11.38;;;;;;;17.78;48.42;103829.41;5016609;28;20034;-61
2022/01/18 12:00:58;;;;;;;24.13;8.77;;;;;;;17.49;50.20;103831.38;5017076;28;20095;-61
2022/01/18 12:03:29;;;;;;;21.35;9.45;;;;;;;17.12;50.25;103827.03;5025909;28;20037;-61
2022/01/18 12:05:57;;;;;;;28.13;9.60;;;;;;;16.73;49.84;103834.00;5026585;28;20021;-61
2022/01/18 12:08:37;;;;;;;27.55;10.35;;;;;;;17.12;53.48;103825.13;5024389;28;20072;-61
2022/01/18 12:11:08;;;;;;;24.60;8.70;;;;;;;16.09;51.99;103829.22;5025718;28;20030;-61
2022/01/18 12:13:37;;;;;;;23.45;7.75;;;;;;;14.90;55.38;103824.69;5026212;28;20112;-61
2022/01/18 12:16:15;;;;;;;27.05;8.93;;;;;;;15.57;53.79;103829.34;5026205;28;20365;-61